createdAt,value
2018-03-31T00:00:45.829Z,26.83
2018-03-31T00:03:12.291Z,23.80
2018-03-31T00:05:38.726Z,23.45
2018-03-31T00:08:05.404Z,23.30
2018-03-31T00:10:32.735Z,25.00
2018-03-31T00:12:59.298Z,20.17
2018-03-31T00:15:26.647Z,25.25
2018-03-31T00:17:53.792Z,23.27
2018-03-31T00:20:20.599Z,21.50
2018-03-31T00:22:47.643Z,20.42
2018-03-31T00:25:15.106Z,19.35
2018-03-31T00:27:42.845Z,21.65
2018-03-31T00:30:09.520Z,23.10
2018-03-31T00:32:36.887Z,17.75
2018-03-31T00:35:03.611Z,20.80
2018-03-31T00:37:30.454Z,27.60
2018-03-31T00:39:57.406Z,17.92
2018-03-31T00:42:24.289Z,21.12
2018-03-31T00:44:51.123Z,19.17
2018-03-31T00:47:17.942Z,22.80
2018-03-31T00:49:45.164Z,19.92
2018-03-31T00:52:12.010Z,20.98
2018-03-31T00:54:39.259Z,19.48
2018-03-31T00:57:06.031Z,22.50
2018-03-31T00:59:33.662Z,20.30
2018-03-31T01:02:00.382Z,25.20
2018-03-31T01:04:27.072Z,22.37
2018-03-31T01:06:53.926Z,21.77
2018-03-31T01:09:21.793Z,20.12
2018-03-31T01:11:49.839Z,20.05
2018-03-31T01:14:16.626Z,19.98
2018-03-31T01:16:43.439Z,18.83
2018-03-31T01:19:10.236Z,20.95
2018-03-31T01:21:37.252Z,22.62
2018-03-31T01:24:03.868Z,22.37
2018-03-31T01:26:30.487Z,18.08
2018-03-31T01:28:57.099Z,20.62
2018-03-31T01:31:25.819Z,19.27
2018-03-31T01:33:52.613Z,21.00
2018-03-31T01:36:22.895Z,21.02
2018-03-31T01:41:26.431Z,24.70
2018-03-31T01:46:27.728Z,21.40
2018-03-31T01:48:54.652Z,20.65
2018-03-31T01:51:22.243Z,23.35
2018-03-31T01:53:49.465Z,21.60
2018-03-31T01:56:16.358Z,22.65
2018-03-31T01:58:42.970Z,25.62
2018-03-31T02:01:10.065Z,23.77
2018-03-31T02:03:36.734Z,24.73
2018-03-31T02:06:04.460Z,22.40
2018-03-31T02:08:31.420Z,23.12
2018-03-31T02:10:58.849Z,26.52
2018-03-31T02:13:25.937Z,28.23
2018-03-31T02:15:52.992Z,26.58
2018-03-31T02:18:19.770Z,23.85
2018-03-31T02:20:46.582Z,24.85
2018-03-31T02:23:14.218Z,23.83
2018-03-31T02:25:41.036Z,24.83
2018-03-31T02:28:08.302Z,26.58
2018-03-31T02:30:35.004Z,29.00
2018-03-31T02:33:02.801Z,26.75
2018-03-31T02:35:29.639Z,23.50
2018-03-31T02:37:56.440Z,29.77
2018-03-31T02:40:23.547Z,24.75
2018-03-31T02:42:50.279Z,25.90
2018-03-31T02:45:16.798Z,28.23
2018-03-31T02:47:44.337Z,28.17
2018-03-31T02:50:10.957Z,21.50
2018-03-31T02:52:38.070Z,23.80
2018-03-31T02:55:04.561Z,24.58
2018-03-31T02:57:31.548Z,20.30
2018-03-31T02:59:59.834Z,26.12
2018-03-31T03:02:28.580Z,26.42
2018-03-31T03:04:58.683Z,21.75
2018-03-31T03:07:26.599Z,20.40
2018-03-31T03:09:53.496Z,23.17
2018-03-31T03:12:26.891Z,25.88
2018-03-31T03:14:56.655Z,19.92
2018-03-31T03:17:23.809Z,19.52
2018-03-31T03:20:01.888Z,24.42
2018-03-31T03:22:39.715Z,18.35
2018-03-31T03:25:11.445Z,19.60
2018-03-31T03:27:43.116Z,22.62
2018-03-31T03:30:17.514Z,24.83
2018-03-31T03:32:52.082Z,21.40
2018-03-31T03:35:24.014Z,22.10
2018-03-31T03:37:57.124Z,26.20
2018-03-31T03:40:29.270Z,29.08
2018-03-31T03:43:01.764Z,24.12
2018-03-31T03:45:31.410Z,28.48
2018-03-31T03:47:59.196Z,26.65
2018-03-31T03:50:27.556Z,31.02
2018-03-31T03:53:03.867Z,29.52
2018-03-31T03:55:32.912Z,23.33
2018-03-31T03:58:02.925Z,24.17
2018-03-31T04:00:31.226Z,29.67
2018-03-31T04:02:59.623Z,24.92
2018-03-31T04:05:26.956Z,38.92
2018-03-31T04:07:55.401Z,28.65
2018-03-31T04:10:22.374Z,32.42
2018-03-31T04:12:55.428Z,28.23
2018-03-31T04:15:23.551Z,29.30
2018-03-31T04:17:51.378Z,22.00
2018-03-31T04:20:18.479Z,29.63
2018-03-31T04:22:46.354Z,31.45
2018-03-31T04:25:14.161Z,29.92
2018-03-31T04:27:40.839Z,26.48
2018-03-31T04:30:07.579Z,27.83
2018-03-31T04:32:36.524Z,29.10
2018-03-31T04:35:04.775Z,24.98
2018-03-31T04:37:34.059Z,27.87
2018-03-31T04:40:00.951Z,26.62
2018-03-31T04:42:28.228Z,29.92
2018-03-31T04:44:56.506Z,25.45
2018-03-31T04:47:23.656Z,33.10
2018-03-31T04:49:50.490Z,24.55
2018-03-31T04:52:19.412Z,28.58
2018-03-31T04:54:47.608Z,20.17
2018-03-31T04:57:14.128Z,20.23
2018-03-31T04:59:41.253Z,21.62
2018-03-31T05:02:09.756Z,29.20
2018-03-31T05:04:36.356Z,25.98
2018-03-31T05:07:04.947Z,26.55
2018-03-31T05:09:32.832Z,25.65
2018-03-31T05:12:00.247Z,25.20
2018-03-31T05:14:27.642Z,29.98
2018-03-31T05:16:55.263Z,37.10
2018-03-31T05:19:23.357Z,42.22
2018-03-31T05:21:50.917Z,38.40
2018-03-31T05:24:20.512Z,37.60
2018-03-31T05:26:49.731Z,31.17
2018-03-31T05:29:18.291Z,37.30
2018-03-31T05:31:46.478Z,34.35
2018-03-31T05:34:17.236Z,31.30
2018-03-31T05:36:44.710Z,32.20
2018-03-31T05:39:13.333Z,30.12
2018-03-31T05:41:52.886Z,28.00
2018-03-31T05:44:22.359Z,27.10
2018-03-31T05:46:49.199Z,25.70
2018-03-31T05:49:16.870Z,31.85
2018-03-31T05:54:40.105Z,26.55
2018-03-31T05:57:08.066Z,25.08
2018-03-31T05:59:37.155Z,26.37
2018-03-31T06:02:04.954Z,31.08
2018-03-31T06:04:32.720Z,32.38
2018-03-31T06:07:01.928Z,30.52
2018-03-31T06:09:29.400Z,27.37
2018-03-31T06:11:56.930Z,26.73
2018-03-31T06:14:24.580Z,29.20
2018-03-31T06:16:53.095Z,31.08
2018-03-31T06:19:23.978Z,27.62
2018-03-31T06:21:51.854Z,29.87
2018-03-31T06:24:20.727Z,26.65
2018-03-31T06:26:49.133Z,27.37
2018-03-31T06:29:17.195Z,32.60
2018-03-31T06:31:44.594Z,28.58
2018-03-31T06:34:12.127Z,26.42
2018-03-31T06:36:40.626Z,27.05
2018-03-31T06:39:08.328Z,35.95
2018-03-31T06:41:35.548Z,33.97
2018-03-31T06:44:03.320Z,34.03
2018-03-31T06:46:29.915Z,31.85
2018-03-31T06:48:57.478Z,28.25
2018-03-31T06:51:24.689Z,29.08
2018-03-31T06:53:51.663Z,42.78
2018-03-31T06:56:19.517Z,31.83
2018-03-31T06:58:46.717Z,28.12
2018-03-31T07:01:14.076Z,30.88
2018-03-31T07:03:43.836Z,28.60
2018-03-31T07:06:11.163Z,34.00
2018-03-31T07:08:40.177Z,34.88
2018-03-31T07:11:07.463Z,29.37
2018-03-31T07:13:35.266Z,28.17
2018-03-31T07:16:03.328Z,23.42
2018-03-31T07:18:31.414Z,21.00
2018-03-31T07:20:59.898Z,25.40
2018-03-31T07:23:27.100Z,25.73
2018-03-31T07:25:55.734Z,26.60
2018-03-31T07:28:23.930Z,25.23
2018-03-31T07:30:51.187Z,19.92
2018-03-31T07:33:18.524Z,21.33
2018-03-31T07:35:47.290Z,19.20
2018-03-31T07:38:25.102Z,25.98
2018-03-31T07:40:52.012Z,26.30
2018-03-31T07:43:20.130Z,23.35
2018-03-31T07:45:47.088Z,20.42
2018-03-31T07:48:14.060Z,21.67
2018-03-31T07:50:42.211Z,21.70
2018-03-31T07:53:09.359Z,22.87
2018-03-31T07:55:38.123Z,36.15
2018-03-31T07:58:04.912Z,26.37
2018-03-31T08:00:31.888Z,25.27
2018-03-31T08:02:58.716Z,25.15
2018-03-31T08:05:27.230Z,19.87
2018-03-31T08:07:54.619Z,26.17
2018-03-31T08:10:22.356Z,23.08
2018-03-31T08:12:50.397Z,22.15
2018-03-31T08:15:18.733Z,24.25
2018-03-31T08:17:46.065Z,22.42
2018-03-31T08:20:13.074Z,20.35
2018-03-31T08:22:40.336Z,22.92
2018-03-31T08:27:41.376Z,21.85
2018-03-31T08:30:07.785Z,22.08
2018-03-31T08:32:34.063Z,24.23
2018-03-31T08:35:00.414Z,20.62
2018-03-31T08:37:26.824Z,25.27
2018-03-31T08:39:54.162Z,22.70
2018-03-31T08:42:21.869Z,22.90
2018-03-31T08:44:50.148Z,21.77
2018-03-31T08:47:18.434Z,20.30
2018-03-31T08:49:45.543Z,25.88
2018-03-31T08:52:11.959Z,21.90
2018-03-31T08:54:38.401Z,24.67
2018-03-31T08:57:06.979Z,23.67
2018-03-31T08:59:33.819Z,19.80
2018-03-31T09:02:00.966Z,19.73
2018-03-31T09:04:27.658Z,23.20
2018-03-31T09:06:54.037Z,21.67
2018-03-31T09:09:22.729Z,19.70
2018-03-31T09:11:51.025Z,22.37
2018-03-31T09:14:17.471Z,24.43
2018-03-31T09:16:44.964Z,16.80
2018-03-31T09:19:14.392Z,17.53
2018-03-31T09:24:14.862Z,16.80
2018-03-31T09:26:41.850Z,15.90
2018-03-31T09:29:08.206Z,13.80
2018-03-31T09:31:34.491Z,22.30
2018-03-31T09:34:00.860Z,16.33
2018-03-31T09:36:27.505Z,16.60
2018-03-31T09:38:54.173Z,19.93
2018-03-31T09:41:20.691Z,18.07
2018-03-31T09:43:48.135Z,12.13
2018-03-31T09:46:14.870Z,13.90
2018-03-31T09:48:41.709Z,15.00
2018-03-31T09:51:08.502Z,16.50
2018-03-31T09:53:35.623Z,17.53
2018-03-31T09:56:05.729Z,13.17
2018-03-31T09:58:32.359Z,19.07
2018-03-31T10:01:03.040Z,13.43
2018-03-31T10:03:29.679Z,12.50
2018-03-31T10:05:56.424Z,17.93
2018-03-31T10:08:23.423Z,12.53
2018-03-31T10:10:50.591Z,12.87
2018-03-31T10:13:16.916Z,13.50
2018-03-31T10:15:43.599Z,16.13
2018-03-31T10:18:10.242Z,8.77
2018-03-31T10:20:36.963Z,12.57
2018-03-31T10:23:04.440Z,13.77
2018-03-31T10:25:30.799Z,10.23
2018-03-31T10:27:57.878Z,9.13
2018-03-31T10:30:25.660Z,10.03
2018-03-31T10:32:52.143Z,9.17
2018-03-31T10:35:20.896Z,14.90
2018-03-31T10:37:47.735Z,11.83
2018-03-31T10:40:14.120Z,14.47
2018-03-31T10:42:41.443Z,13.53
2018-03-31T10:45:08.321Z,8.77
2018-03-31T10:47:36.389Z,10.10
2018-03-31T10:50:03.237Z,5.23
2018-03-31T10:52:32.514Z,15.73
2018-03-31T10:55:01.375Z,7.90
2018-03-31T10:57:28.265Z,7.80
2018-03-31T10:59:55.625Z,7.40
2018-03-31T11:02:24.107Z,6.10
2018-03-31T11:04:52.245Z,7.60
2018-03-31T11:07:20.158Z,9.07
2018-03-31T11:09:46.461Z,6.73
2018-03-31T11:12:13.392Z,4.63
2018-03-31T11:14:42.100Z,3.57
2018-03-31T11:17:09.505Z,6.20
2018-03-31T11:19:36.511Z,7.70
2018-03-31T11:22:05.512Z,11.13
2018-03-31T11:24:31.734Z,11.07
2018-03-31T11:26:59.318Z,13.03
2018-03-31T11:29:26.047Z,6.67
2018-03-31T11:31:52.570Z,7.67
2018-03-31T11:34:19.105Z,11.67
2018-03-31T11:36:46.277Z,6.83
2018-03-31T11:39:14.558Z,36.40
2018-03-31T11:41:42.541Z,23.80
2018-03-31T11:44:08.785Z,12.10
2018-03-31T11:46:35.534Z,28.00
2018-03-31T11:49:03.162Z,7.07
2018-03-31T11:51:31.232Z,13.97
2018-03-31T11:53:58.425Z,17.20
2018-03-31T11:56:25.050Z,9.73
2018-03-31T11:58:51.504Z,3.93
2018-03-31T12:01:18.410Z,7.13
2018-03-31T12:03:44.720Z,20.33
2018-03-31T12:06:11.147Z,15.73
2018-03-31T12:08:37.182Z,22.33
2018-03-31T12:11:03.295Z,32.47
2018-03-31T12:13:29.460Z,14.47
2018-03-31T12:15:56.047Z,7.73
2018-03-31T12:18:22.640Z,13.53
2018-03-31T12:20:49.140Z,23.80
2018-03-31T12:23:15.791Z,5.10
2018-03-31T12:25:42.348Z,39.57
2018-03-31T12:28:08.843Z,4.50
2018-03-31T12:30:35.240Z,8.60
2018-03-31T12:33:01.540Z,6.00
2018-03-31T12:35:27.654Z,7.90
2018-03-31T12:37:54.199Z,13.70
2018-03-31T12:40:20.585Z,4.70
2018-03-31T12:42:47.299Z,49.33
2018-03-31T12:45:13.879Z,38.23
2018-03-31T12:47:40.710Z,6.37
2018-03-31T12:50:08.133Z,10.70
2018-03-31T12:52:34.883Z,26.10
2018-03-31T12:55:01.392Z,9.30
2018-03-31T12:57:27.854Z,16.80
2018-03-31T12:59:54.617Z,5.83
2018-03-31T13:02:21.218Z,9.13
2018-03-31T13:04:47.691Z,7.87
2018-03-31T13:07:13.889Z,4.23
2018-03-31T13:09:40.709Z,6.97
2018-03-31T13:12:06.887Z,4.30
2018-03-31T13:14:33.246Z,10.33
2018-03-31T13:16:59.496Z,9.83
2018-03-31T13:19:26.819Z,8.07
2018-03-31T13:21:53.400Z,11.13
2018-03-31T13:24:19.947Z,7.30
2018-03-31T13:26:46.542Z,7.33
2018-03-31T13:29:13.262Z,11.23
2018-03-31T13:31:39.960Z,3.00
2018-03-31T13:34:06.472Z,5.13
2018-03-31T13:36:35.066Z,7.47
2018-03-31T13:39:02.394Z,4.00
2018-03-31T13:41:29.118Z,6.50
2018-03-31T13:43:57.283Z,6.83
2018-03-31T13:46:24.145Z,2.80
2018-03-31T13:48:51.525Z,67.17
2018-03-31T13:51:18.760Z,6.53
2018-03-31T13:53:45.823Z,6.67
2018-03-31T13:56:12.369Z,9.07
2018-03-31T13:58:39.185Z,5.23
2018-03-31T14:01:05.846Z,10.37
2018-03-31T14:03:33.335Z,7.10
2018-03-31T14:05:59.647Z,5.60
2018-03-31T14:08:25.931Z,7.70
2018-03-31T14:10:52.894Z,3.33
2018-03-31T14:13:19.049Z,6.10
2018-03-31T14:15:45.954Z,6.00
2018-03-31T14:18:13.032Z,4.63
2018-03-31T14:20:40.359Z,6.50
2018-03-31T14:23:08.750Z,5.37
2018-03-31T14:25:35.696Z,2.90
2018-03-31T14:28:02.567Z,4.17
2018-03-31T14:30:28.997Z,13.50
2018-03-31T14:32:55.207Z,6.47
2018-03-31T14:35:21.606Z,3.63
2018-03-31T14:37:48.248Z,7.33
2018-03-31T14:40:17.734Z,8.33
2018-03-31T14:42:44.388Z,8.93
2018-03-31T14:45:11.111Z,5.17
2018-03-31T14:47:38.039Z,6.20
2018-03-31T14:50:04.789Z,6.60
2018-03-31T14:52:31.154Z,4.80
2018-03-31T14:54:57.650Z,4.10
2018-03-31T14:57:24.518Z,7.80
2018-03-31T14:59:52.660Z,7.53
2018-03-31T15:02:19.155Z,4.27
2018-03-31T15:04:45.847Z,9.30
2018-03-31T15:07:12.588Z,5.80
2018-03-31T15:09:39.319Z,8.70
2018-03-31T15:12:07.597Z,5.03
2018-03-31T15:14:34.270Z,7.70
2018-03-31T15:17:01.044Z,3.77
2018-03-31T15:19:27.980Z,14.43
2018-03-31T15:21:54.443Z,4.13
2018-03-31T15:24:21.367Z,3.47
2018-03-31T15:26:47.953Z,6.20
2018-03-31T15:29:14.234Z,6.57
2018-03-31T15:31:40.737Z,10.27
2018-03-31T15:34:08.641Z,5.30
2018-03-31T15:36:39.090Z,5.70
2018-03-31T15:41:56.021Z,8.90
2018-03-31T15:44:23.227Z,9.73
2018-03-31T15:46:50.280Z,5.23
2018-03-31T15:49:17.621Z,8.60
2018-03-31T15:51:44.802Z,7.97
2018-03-31T15:54:14.744Z,4.17
2018-03-31T15:56:43.248Z,5.37
2018-03-31T15:59:09.655Z,4.63
2018-03-31T16:01:36.771Z,5.10
2018-03-31T16:04:04.493Z,7.70
2018-03-31T16:06:30.951Z,7.10
2018-03-31T16:08:59.575Z,7.37
2018-03-31T16:11:26.220Z,7.43
2018-03-31T16:13:53.944Z,9.27
2018-03-31T16:16:21.571Z,5.27
2018-03-31T16:18:48.696Z,14.77
2018-03-31T16:21:18.422Z,10.70
2018-03-31T16:23:48.686Z,3.57
2018-03-31T16:26:16.882Z,6.33
2018-03-31T16:28:42.970Z,5.30
2018-03-31T16:31:09.831Z,5.23
2018-03-31T16:33:36.643Z,9.10
2018-03-31T16:36:03.667Z,7.73
2018-03-31T16:38:31.152Z,11.00
2018-03-31T16:41:02.045Z,19.43
2018-03-31T16:43:30.179Z,5.03
2018-03-31T16:45:57.598Z,5.53
2018-03-31T16:48:24.227Z,7.67
2018-03-31T16:50:51.741Z,8.93
2018-03-31T16:53:18.933Z,6.37
2018-03-31T16:55:45.468Z,5.37
2018-03-31T16:58:12.534Z,6.40
2018-03-31T17:00:39.744Z,7.40
2018-03-31T17:03:07.473Z,5.90
2018-03-31T17:05:34.331Z,6.60
2018-03-31T17:08:01.787Z,6.87
2018-03-31T17:10:28.535Z,5.57
2018-03-31T17:12:57.087Z,8.97
2018-03-31T17:15:26.637Z,15.97
2018-03-31T17:17:55.538Z,9.90
2018-03-31T17:20:22.205Z,5.20
2018-03-31T17:22:49.127Z,6.03
2018-03-31T17:25:15.889Z,10.77
2018-03-31T17:27:43.056Z,7.30
2018-03-31T17:30:09.925Z,10.70
2018-03-31T17:32:36.837Z,9.17
2018-03-31T17:35:03.530Z,16.17
2018-03-31T17:37:30.254Z,8.67
2018-03-31T17:39:57.590Z,4.67
2018-03-31T17:42:24.527Z,10.70
2018-03-31T17:44:51.563Z,6.27
2018-03-31T17:47:18.312Z,18.10
2018-03-31T17:49:45.183Z,13.60
2018-03-31T17:52:12.129Z,9.97
2018-03-31T17:54:39.324Z,13.70
2018-03-31T17:57:06.212Z,11.93
2018-03-31T17:59:32.526Z,15.67
2018-03-31T18:01:58.835Z,20.80
2018-03-31T18:04:25.202Z,19.73
2018-03-31T18:06:52.022Z,16.87
2018-03-31T18:09:19.372Z,8.83
2018-03-31T18:11:45.756Z,18.13
2018-03-31T18:14:12.113Z,13.77
2018-03-31T18:16:39.609Z,14.00
2018-03-31T18:19:06.266Z,13.00
2018-03-31T18:21:32.890Z,15.27
2018-03-31T18:23:59.676Z,16.63
2018-03-31T18:26:26.554Z,14.03
2018-03-31T18:28:53.046Z,12.73
2018-03-31T18:31:20.147Z,14.03
2018-03-31T18:33:47.030Z,13.07
2018-03-31T18:36:13.646Z,16.47
2018-03-31T18:38:40.323Z,15.67
2018-03-31T18:41:08.523Z,12.57
2018-03-31T18:43:36.272Z,18.77
2018-03-31T18:46:03.232Z,16.03
2018-03-31T18:48:31.179Z,16.87
2018-03-31T18:50:58.926Z,12.03
2018-03-31T18:53:25.212Z,11.83
2018-03-31T18:55:52.536Z,17.43
2018-03-31T18:58:19.188Z,16.13
2018-03-31T19:00:45.624Z,16.63
2018-03-31T19:03:12.063Z,15.97
2018-03-31T19:05:38.745Z,15.83
2018-03-31T19:08:06.559Z,15.70
2018-03-31T19:10:34.448Z,12.03
2018-03-31T19:13:01.218Z,16.53
2018-03-31T19:15:28.569Z,16.27
2018-03-31T19:17:55.983Z,13.67
2018-03-31T19:20:23.204Z,15.03
2018-03-31T19:22:50.934Z,15.20
2018-03-31T19:25:23.153Z,13.20
2018-03-31T19:27:49.767Z,18.70
2018-03-31T19:30:17.745Z,15.80
2018-03-31T19:33:03.190Z,15.67
2018-03-31T19:35:52.222Z,21.17
2018-03-31T19:38:23.875Z,15.67
2018-03-31T19:40:57.820Z,20.57
2018-03-31T19:43:25.495Z,18.83
2018-03-31T19:45:52.296Z,17.80
2018-03-31T19:48:18.539Z,17.17
2018-03-31T19:50:44.634Z,22.97
2018-03-31T19:53:12.189Z,18.97
2018-03-31T19:55:39.059Z,16.80
2018-03-31T19:58:06.427Z,19.50
2018-03-31T20:00:33.261Z,21.97
2018-03-31T20:03:00.944Z,20.63
2018-03-31T20:05:27.480Z,20.63
2018-03-31T20:07:54.043Z,23.83
2018-03-31T20:10:20.733Z,21.73
2018-03-31T20:12:47.467Z,22.83
2018-03-31T20:15:14.452Z,21.60
2018-03-31T20:17:41.545Z,18.87
2018-03-31T20:20:09.425Z,15.40
2018-03-31T20:22:36.639Z,17.07
2018-03-31T20:25:11.966Z,14.43
2018-03-31T20:27:45.951Z,13.20
2018-03-31T20:30:15.616Z,14.27
2018-03-31T20:32:43.825Z,11.33
2018-03-31T20:35:10.730Z,17.40
2018-03-31T20:37:38.767Z,14.40
2018-03-31T20:40:06.918Z,12.77
2018-03-31T20:42:35.962Z,13.27
2018-03-31T20:45:08.377Z,14.40
2018-03-31T20:47:42.210Z,14.03
2018-03-31T20:50:10.479Z,13.67
2018-03-31T20:52:39.658Z,8.87
2018-03-31T20:55:09.454Z,21.90
2018-03-31T20:57:39.082Z,13.17
2018-03-31T21:00:14.674Z,18.80
2018-03-31T21:02:48.446Z,14.10
2018-03-31T21:05:18.409Z,11.33
2018-03-31T21:07:55.899Z,16.10
2018-03-31T21:10:40.838Z,10.83
2018-03-31T21:13:10.194Z,10.67
2018-03-31T21:15:40.000Z,11.25
2018-03-31T21:18:19.163Z,16.13
2018-03-31T21:23:36.574Z,12.43
2018-03-31T21:26:04.752Z,11.23
2018-03-31T21:28:38.684Z,12.37
2018-03-31T21:31:08.088Z,15.60
2018-03-31T21:33:39.084Z,13.43
2018-03-31T21:36:06.425Z,13.40
2018-03-31T21:38:39.875Z,15.03
2018-03-31T21:41:09.196Z,11.10
2018-03-31T21:43:38.991Z,11.67
2018-03-31T21:48:54.194Z,11.97
2018-03-31T21:52:09.130Z,11.53
2018-03-31T21:54:36.933Z,14.45
2018-03-31T21:57:07.156Z,13.37
2018-03-31T21:59:42.838Z,13.00
2018-03-31T22:02:38.728Z,14.95
2018-03-31T22:07:44.834Z,10.52
2018-03-31T22:10:12.634Z,11.35
2018-03-31T22:12:43.737Z,7.85
2018-03-31T22:18:26.030Z,11.07
2018-03-31T22:23:44.457Z,12.48
2018-03-31T22:26:15.190Z,8.88
2018-03-31T22:31:18.491Z,7.82
2018-03-31T22:33:48.780Z,9.50
2018-03-31T22:36:17.295Z,7.30
2018-03-31T22:38:54.661Z,10.50
2018-03-31T22:41:24.423Z,8.30
2018-03-31T22:43:54.472Z,7.27
2018-03-31T22:46:32.353Z,11.88
2018-03-31T22:49:03.378Z,9.13
2018-03-31T22:54:09.652Z,16.85
2018-03-31T22:56:39.333Z,63.25
2018-03-31T22:59:07.008Z,27.40
2018-03-31T23:01:42.175Z,18.98
2018-03-31T23:04:11.613Z,18.15
2018-03-31T23:06:42.009Z,11.37
2018-03-31T23:09:10.920Z,9.50
2018-03-31T23:11:42.822Z,6.97
2018-03-31T23:17:20.452Z,10.20
2018-03-31T23:19:55.327Z,8.80
2018-03-31T23:22:24.481Z,9.37
2018-03-31T23:35:21.110Z,11.93
2018-03-31T23:37:54.789Z,7.20
